Time;durP1;ratioP1;P1;durP2;ratioP2;P2;SDS_P1;SDS_P2;PMS_P1;PMS_P2;Temp;Humidity;BMP_temperature;BMP_pressure;BME280_temperature;BME280_humidity;BME280_pressure;Samples;Min_cycle;Max_cycle;Signal;HPM_P1;HPM_P2
2021/05/10 00:01:42;;;;;;;3.70;2.40;;;332.80;1894.40;;;;;;5030263;28;20081;-61
2021/05/10 00:04:08;;;;;;;5.28;2.20;;;308.10;1868.80;;;;;;5032991;28;20041;-62
2021/05/10 00:06:34;;;;;;;4.30;2.58;;;308.10;1868.80;;;;;;5032149;28;20017;-58
2021/05/10 00:09:02;;;;;;;6.43;2.60;;;308.00;1868.80;;;;;;5030911;28;20060;-58
2021/05/10 00:11:28;;;;;;;6.57;2.78;;;308.10;1894.40;;;;;;5029266;28;20040;-58
2021/05/10 00:13:55;;;;;;;5.80;2.58;;;307.90;1894.40;;;;;;5014868;28;20030;-58
2021/05/10 00:16:21;;;;;;;5.53;2.80;;;307.90;1920.00;;;;;;5025764;28;20071;-59
2021/05/10 00:18:47;;;;;;;3.88;2.28;;;307.90;1920.00;;;;;;5016204;28;20030;-57
2021/05/10 00:21:13;;;;;;;4.35;2.30;;;307.90;1920.00;;;;;;5017476;28;20022;-59
2021/05/10 00:23:39;;;;;;;5.30;2.60;;;307.90;1920.00;;;;;;5022588;28;20034;-61
2021/05/10 00:26:05;;;;;;;7.50;2.50;;;307.90;1920.00;;;;;;5030311;28;20071;-61
2021/05/10 00:28:31;;;;;;;5.93;2.55;;;307.90;1920.00;;;;;;5017923;28;20018;-57
2021/05/10 00:30:57;;;;;;;4.30;2.80;;;307.90;1920.00;;;;;;5017499;28;20053;-58
2021/05/10 00:33:23;;;;;;;4.72;2.60;;;307.90;1920.00;;;;;;5019222;28;20037;-59
2021/05/10 00:35:49;;;;;;;5.00;2.40;;;307.90;1894.40;;;;;;5037134;28;20083;-58
2021/05/10 00:38:14;;;;;;;6.18;2.40;;;307.90;1920.00;;;;;;5036538;28;20109;-62
2021/05/10 00:40:40;;;;;;;6.97;2.50;;;307.90;1920.00;;;;;;5037060;28;20034;-61
2021/05/10 00:43:06;;;;;;;4.22;2.50;;;307.90;1920.00;;;;;;5037193;28;20040;-63
2021/05/10 00:45:33;;;;;;;4.28;2.40;;;307.80;1920.00;;;;;;5037073;28;20533;-58
2021/05/10 00:47:59;;;;;;;4.25;2.70;;;307.80;1920.00;;;;;;5036651;28;20036;-59
2021/05/10 00:50:25;;;;;;;5.03;2.28;;;307.80;1920.00;;;;;;5036827;28;20029;-60
2021/05/10 00:52:51;;;;;;;4.32;2.50;;;307.70;1920.00;;;;;;5036727;28;20022;-59
2021/05/10 00:55:17;;;;;;;7.93;2.60;;;307.70;1945.60;;;;;;5036612;28;20044;-63
2021/05/10 00:57:50;;;;;;;4.10;2.47;;;307.70;1945.60;;;;;;5036435;28;20041;-60
2021/05/10 01:00:16;;;;;;;4.78;2.63;;;307.70;1945.60;;;;;;5035400;28;20132;-61
2021/05/10 01:02:43;;;;;;;4.05;2.50;;;307.70;1971.20;;;;;;5036658;28;20029;-61
2021/05/10 01:05:09;;;;;;;4.75;2.75;;;307.70;1971.20;;;;;;5036745;28;20602;-58
2021/05/10 01:07:37;;;;;;;3.47;2.75;;;307.70;1971.20;;;;;;5035935;28;20475;-58
2021/05/10 01:10:10;;;;;;;3.80;2.70;;;307.70;1971.20;;;;;;5036546;28;20521;-59
2021/05/10 01:12:36;;;;;;;5.15;2.60;;;307.70;1971.20;;;;;;5036826;28;20072;-62
2021/05/10 01:15:08;;;;;;;5.18;3.10;;;307.60;1996.80;;;;;;5036644;28;20028;-60
2021/05/10 01:17:34;;;;;;;6.13;2.88;;;307.60;1971.20;;;;;;5036551;28;20075;-57
2021/05/10 01:20:03;;;;;;;4.90;2.70;;;307.50;1971.20;;;;;;5036326;28;20021;-59
2021/05/10 01:22:41;;;;;;;3.80;2.88;;;307.60;1971.20;;;;;;5036059;28;20117;-57
2021/05/10 01:25:09;;;;;;;4.30;2.90;;;307.50;1971.20;;;;;;5036343;28;20026;-58
2021/05/10 01:27:35;;;;;;;6.28;3.08;;;307.50;1971.20;;;;;;5033589;28;20056;-59
2021/05/10 01:30:03;;;;;;;3.15;2.63;;;307.50;1971.20;;;;;;5027835;28;20060;-58
2021/05/10 01:32:29;;;;;;;4.25;2.70;;;307.50;1971.20;;;;;;5028559;28;20079;-60
2021/05/10 01:34:54;;;;;;;4.10;2.65;;;307.50;1971.20;;;;;;5025967;28;20108;-57
2021/05/10 01:37:20;;;;;;;5.55;2.70;;;307.50;1971.20;;;;;;5016446;28;20029;-61
2021/05/10 01:39:46;;;;;;;6.63;3.05;;;307.40;1971.20;;;;;;5016322;28;20044;-58
2021/05/10 01:42:12;;;;;;;6.60;2.90;;;307.40;1971.20;;;;;;5016061;28;20461;-57
2021/05/10 01:44:37;;;;;;;7.90;2.95;;;307.50;1996.80;;;;;;5016246;28;20104;-58
2021/05/10 01:47:03;;;;;;;6.03;2.67;;;307.50;1996.80;;;;;;5016094;28;20033;-59
2021/05/10 01:49:29;;;;;;;4.10;2.80;;;307.40;1996.80;;;;;;5020417;28;20483;-57
2021/05/10 01:51:54;;;;;;;8.15;3.00;;;307.40;1996.80;;;;;;5024633;28;20057;-58
2021/05/10 01:54:20;;;;;;;4.70;2.60;;;307.40;1971.20;;;;;;5016189;28;20022;-59
2021/05/10 01:56:46;;;;;;;4.88;2.80;;;307.30;1996.80;;;;;;5020455;28;20034;-58
2021/05/10 01:59:12;;;;;;;6.95;3.10;;;307.40;1971.20;;;;;;5025072;28;20022;-58
2021/05/10 02:01:38;;;;;;;7.07;3.10;;;307.30;1996.80;;;;;;5015820;28;20082;-59
2021/05/10 02:04:04;;;;;;;6.75;2.90;;;307.30;1996.80;;;;;;5021442;28;20475;-58
2021/05/10 02:06:29;;;;;;;4.30;2.90;;;307.30;2022.40;;;;;;5022860;28;20057;-60
2021/05/10 02:08:55;;;;;;;6.18;2.70;;;307.20;1996.80;;;;;;5015940;28;20037;-58
2021/05/10 02:11:21;;;;;;;6.45;2.88;;;307.30;1996.80;;;;;;5015642;28;20026;-57
2021/05/10 02:13:46;;;;;;;4.63;2.90;;;307.30;1996.80;;;;;;5018399;28;20021;-59
2021/05/10 02:16:12;;;;;;;6.07;2.80;;;307.30;1996.80;;;;;;5027665;28;20513;-58
2021/05/10 02:18:38;;;;;;;4.57;2.85;;;307.20;1996.80;;;;;;5025386;28;20022;-61
2021/05/10 02:21:04;;;;;;;6.10;3.10;;;307.30;1996.80;;;;;;5015600;28;20026;-58
2021/05/10 02:23:32;;;;;;;4.45;2.72;;;307.20;1996.80;;;;;;5015425;28;20037;-61
2021/05/10 02:26:07;;;;;;;5.03;2.67;;;307.20;1996.80;;;;;;5015422;28;20476;-62
2021/05/10 02:28:33;;;;;;;4.13;3.00;;;307.20;1996.80;;;;;;5015303;28;20399;-58
2021/05/10 02:31:01;;;;;;;4.93;3.00;;;307.20;1996.80;;;;;;5015150;28;20038;-58
2021/05/10 02:33:33;;;;;;;5.38;2.85;;;307.20;2022.40;;;;;;5031700;28;20467;-58
2021/05/10 02:36:00;;;;;;;4.47;3.08;;;307.20;2022.40;;;;;;5034675;28;20044;-59
2021/05/10 02:38:26;;;;;;;5.32;3.28;;;307.20;2048.00;;;;;;5034590;28;20025;-60
2021/05/10 02:40:52;;;;;;;5.57;3.10;;;307.20;2048.00;;;;;;5034707;28;20412;-58
2021/05/10 02:43:23;;;;;;;3.95;2.70;;;307.20;2048.00;;;;;;5034639;28;20072;-57
2021/05/10 02:45:49;;;;;;;8.75;3.28;;;307.20;2022.40;;;;;;5034510;28;20475;-57
2021/05/10 02:48:14;;;;;;;5.03;3.28;;;307.20;2022.40;;;;;;5034813;28;20029;-57
2021/05/10 02:50:40;;;;;;;5.63;3.10;;;307.20;2048.00;;;;;;5034556;28;20033;-59
2021/05/10 17:05:30;;;;;;;3.45;1.50;;;691.50;768.00;;;;;;4955771;23;20057;-59
2021/05/10 17:08:00;;;;;;;2.55;1.30;;;691.40;768.00;;;;;;4899982;29;20508;-60
2021/05/10 17:10:25;;;;;;;5.57;1.80;;;691.30;768.00;;;;;;4901111;29;20422;-60
2021/05/10 17:12:51;;;;;;;4.93;1.60;;;691.30;768.00;;;;;;4901145;29;20021;-60
2021/05/10 17:15:17;;;;;;;3.22;1.40;;;691.20;768.00;;;;;;4901489;29;20029;-60
2021/05/10 17:17:46;;;;;;;6.15;1.80;;;691.20;768.00;;;;;;4894992;29;20024;-60
2021/05/10 17:20:12;;;;;;;3.28;1.40;;;666.50;768.00;;;;;;4899662;29;20484;-60
2021/05/10 17:22:38;;;;;;;2.85;1.65;;;666.50;768.00;;;;;;4899963;29;20112;-60
2021/05/10 17:25:04;;;;;;;4.30;1.40;;;666.40;768.00;;;;;;4897697;29;20116;-60
2021/05/10 17:27:30;;;;;;;5.43;1.60;;;666.30;768.00;;;;;;4895574;29;20064;-60
2021/05/10 17:29:55;;;;;;;3.42;1.70;;;666.20;793.60;;;;;;4895167;29;20420;-61
2021/05/10 17:32:21;;;;;;;3.72;1.50;;;666.10;819.20;;;;;;4895901;29;20055;-60
2021/05/10 17:34:47;;;;;;;3.33;1.38;;;666.00;844.80;;;;;;4895772;29;20036;-61
2021/05/10 17:37:13;;;;;;;4.60;1.73;;;665.80;844.80;;;;;;4892733;29;20109;-62
2021/05/10 17:39:38;;;;;;;6.38;1.80;;;665.70;870.40;;;;;;4896761;29;20033;-60
2021/05/10 17:42:05;;;;;;;7.60;1.60;;;665.60;870.40;;;;;;4895208;29;20050;-60
2021/05/10 17:44:31;;;;;;;6.45;1.83;;;640.90;870.40;;;;;;4895285;29;20033;-60
2021/05/10 17:46:57;;;;;;;4.88;1.63;;;640.80;870.40;;;;;;4890665;29;20107;-61
2021/05/10 17:49:24;;;;;;;4.40;1.70;;;640.80;896.00;;;;;;4894661;29;20113;-60
2021/05/10 17:51:49;;;;;;;4.13;1.88;;;640.60;896.00;;;;;;4890957;29;20131;-61
2021/05/10 17:54:16;;;;;;;5.95;1.95;;;640.50;921.60;;;;;;4888209;29;20061;-59
2021/05/10 17:56:41;;;;;;;2.22;1.60;;;640.40;921.60;;;;;;4892300;29;20033;-60
2021/05/10 17:59:08;;;;;;;3.42;1.77;;;640.30;921.60;;;;;;4877577;29;20044;-60
2021/05/10 18:04:02;;;;;;;7.90;4.15;;;640.10;947.20;;;;;;4898854;29;20067;-60
2021/05/10 18:06:29;;;;;;;15.07;8.13;;;640.00;972.80;;;;;;4899403;29;20120;-61
2021/05/10 18:08:56;;;;;;;64.63;29.52;;;615.30;972.80;;;;;;4900648;29;20036;-63
2021/05/10 18:11:22;;;;;;;28.85;14.32;;;615.20;998.40;;;;;;4900646;29;20029;-61
2021/05/10 18:13:48;;;;;;;13.88;6.47;;;615.10;998.40;;;;;;4899671;29;20033;-61
2021/05/10 18:16:17;;;;;;;9.63;4.60;;;615.00;998.40;;;;;;4899484;29;20024;-61
2021/05/10 18:21:18;;;;;;;11.43;5.90;;;614.80;998.40;;;;;;4896629;29;20017;-61
2021/05/10 18:23:46;;;;;;;8.15;4.93;;;614.70;1024.00;;;;;;4895434;29;20037;-60
2021/05/10 18:26:12;;;;;;;9.07;3.38;;;614.60;1024.00;;;;;;4897433;29;20040;-62
2021/05/10 18:28:40;;;;;;;17.63;7.60;;;614.50;1024.00;;;;;;4896428;29;20072;-60
2021/05/10 18:31:06;;;;;;;17.23;9.55;;;614.40;1049.60;;;;;;4889918;29;20037;-60
2021/05/10 18:33:33;;;;;;;35.72;15.07;;;589.70;1100.80;;;;;;4885379;29;20033;-60
2021/05/10 18:36:00;;;;;;;16.20;6.28;;;589.70;1100.80;;;;;;4886190;29;20037;-60
2021/05/10 18:38:26;;;;;;;12.38;3.90;;;589.50;1152.00;;;;;;4890814;29;20033;-60
2021/05/10 18:40:52;;;;;;;8.82;4.50;;;589.30;1177.60;;;;;;4892965;29;20065;-61
2021/05/10 18:43:18;;;;;;;10.70;4.85;;;589.20;1177.60;;;;;;4893276;29;20037;-65
2021/05/10 18:45:45;;;;;;;13.35;6.30;;;589.20;1177.60;;;;;;4895411;29;20670;-60
2021/05/10 18:48:13;;;;;;;20.83;10.43;;;589.10;1203.20;;;;;;4885017;29;20036;-57
2021/05/10 18:50:48;;;;;;;22.33;11.45;;;589.00;1228.80;;;;;;4889897;29;20029;-56
2021/05/10 18:53:14;;;;;;;20.55;10.20;;;588.90;1228.80;;;;;;4891148;29;20032;-59
2021/05/10 18:55:41;;;;;;;19.75;11.23;;;588.80;1228.80;;;;;;4896303;29;20096;-56
2021/05/10 18:58:09;;;;;;;25.17;12.55;;;564.10;1228.80;;;;;;4895938;29;20388;-56
2021/05/10 19:00:35;;;;;;;22.45;12.23;;;564.10;1228.80;;;;;;4893618;29;20033;-56
2021/05/10 19:03:00;;;;;;;21.02;10.75;;;564.00;1228.80;;;;;;4896637;29;20047;-57
2021/05/10 19:05:27;;;;;;;16.17;8.00;;;564.00;1254.40;;;;;;4893002;29;20056;-60
2021/05/10 19:07:52;;;;;;;20.45;7.45;;;563.90;1280.00;;;;;;4894836;29;20231;-60
2021/05/10 19:10:20;;;;;;;11.23;5.28;;;563.80;1280.00;;;;;;4889447;29;20119;-56
2021/05/10 19:12:46;;;;;;;13.73;5.72;;;563.70;1305.60;;;;;;4885584;29;20025;-57
2021/05/10 19:15:13;;;;;;;21.77;8.50;;;563.50;1305.60;;;;;;4884924;29;20053;-57
2021/05/10 19:17:38;;;;;;;17.70;7.45;;;563.50;1305.60;;;;;;4886392;29;20040;-56
2021/05/10 19:20:06;;;;;;;15.20;7.07;;;563.40;1331.20;;;;;;4893811;29;20653;-61
2021/05/10 19:22:32;;;;;;;14.80;6.95;;;563.30;1305.60;;;;;;4893602;29;20044;-56
2021/05/10 19:24:59;;;;;;;12.55;6.35;;;563.20;1331.20;;;;;;4894068;29;20060;-57
2021/05/10 19:27:25;;;;;;;21.38;10.55;;;538.50;1305.60;;;;;;4895301;29;20039;-60
2021/05/10 19:29:54;;;;;;;21.67;10.30;;;538.40;1305.60;;;;;;4895463;29;20373;-58
2021/05/10 19:32:21;;;;;;;17.25;8.27;;;538.40;1305.60;;;;;;4895349;29;20443;-57
2021/05/10 19:34:48;;;;;;;15.73;8.02;;;538.40;1331.20;;;;;;4896727;29;20108;-57
2021/05/10 19:37:15;;;;;;;18.73;8.40;;;538.40;1331.20;;;;;;4896798;29;20024;-60
2021/05/10 19:39:43;;;;;;;19.05;9.32;;;538.30;1331.20;;;;;;4894923;29;20419;-57
2021/05/10 19:42:09;;;;;;;14.07;7.38;;;538.30;1331.20;;;;;;4896813;29;20033;-57
2021/05/10 19:44:36;;;;;;;11.80;5.93;;;538.20;1356.80;;;;;;4897702;29;20028;-57
2021/05/10 20:00:09;;;;;;;9.27;4.78;;;537.90;1356.80;;;;;;4890331;29;20076;-57
2021/05/10 20:05:20;;;;;;;6.07;3.20;;;537.60;1305.60;;;;;;4816007;29;20049;-58
2021/05/10 20:07:46;;;;;;;6.20;3.05;;;512.90;1203.20;;;;;;4820401;29;20043;-58
2021/05/10 20:10:12;;;;;;;6.82;2.92;;;512.90;1203.20;;;;;;4822854;29;20117;-59
2021/05/10 20:12:37;;;;;;;8.23;3.13;;;512.90;1203.20;;;;;;4822734;29;20034;-58
2021/05/10 20:15:04;;;;;;;8.15;3.78;;;512.80;1203.20;;;;;;4822416;29;20030;-56
2021/05/10 20:17:30;;;;;;;8.60;4.22;;;512.70;1203.20;;;;;;4822600;29;20038;-56
2021/05/10 20:19:56;;;;;;;14.20;4.63;;;512.60;1228.80;;;;;;4822584;29;20398;-59
2021/05/10 20:22:22;;;;;;;9.35;4.88;;;512.60;1254.40;;;;;;4822634;29;20114;-57
2021/05/10 20:24:49;;;;;;;11.70;5.30;;;512.30;1280.00;;;;;;4822454;29;20470;-57
2021/05/10 20:27:15;;;;;;;11.65;5.05;;;512.30;1305.60;;;;;;4822227;29;20466;-56
2021/05/10 20:29:41;;;;;;;11.88;5.10;;;512.20;1331.20;;;;;;4821979;29;20045;-57
2021/05/10 20:32:07;;;;;;;10.15;5.07;;;512.00;1356.80;;;;;;4821939;29;20035;-62
2021/05/10 20:34:33;;;;;;;12.77;5.60;;;487.30;1356.80;;;;;;4809128;29;20030;-61
2021/05/10 20:36:58;;;;;;;10.52;5.28;;;487.30;1356.80;;;;;;4819595;29;20517;-60
2021/05/10 20:39:24;;;;;;;13.02;5.68;;;487.20;1382.40;;;;;;4824370;29;20496;-60
2021/05/10 20:41:53;;;;;;;12.27;5.63;;;487.20;1408.00;;;;;;4843862;29;20069;-61
2021/05/10 20:44:19;;;;;;;13.05;5.93;;;487.10;1408.00;;;;;;4888801;29;20151;-61
2021/05/10 20:46:45;;;;;;;13.57;5.40;;;487.10;1433.60;;;;;;4899132;29;20116;-56
2021/05/10 20:49:10;;;;;;;13.02;4.90;;;487.00;1433.60;;;;;;4899626;29;20445;-55
2021/05/10 20:51:36;;;;;;;11.18;4.97;;;487.00;1459.20;;;;;;4900339;29;20032;-57
2021/05/10 20:54:02;;;;;;;10.90;4.90;;;486.90;1459.20;;;;;;4899703;29;20035;-56
2021/05/10 20:56:28;;;;;;;10.40;4.80;;;486.90;1484.80;;;;;;4900172;29;20103;-60
2021/05/10 20:58:53;;;;;;;10.57;5.03;;;486.90;1510.40;;;;;;4900018;29;20470;-61
2021/05/10 21:01:19;;;;;;;12.40;5.05;;;486.80;1510.40;;;;;;4882763;29;20049;-57
2021/05/10 21:03:45;;;;;;;15.45;5.40;;;486.80;1536.00;;;;;;4901246;29;20036;-56
2021/05/10 21:06:11;;;;;;;13.38;5.15;;;486.80;1536.00;;;;;;4900265;29;20410;-55
2021/05/10 21:08:37;;;;;;;12.82;4.97;;;486.70;1561.60;;;;;;4900268;29;20410;-57
2021/05/10 21:11:02;;;;;;;10.10;4.90;;;486.70;1587.20;;;;;;4900853;29;20522;-56
2021/05/10 21:13:32;;;;;;;11.02;5.20;;;486.70;1561.60;;;;;;4900538;29;20024;-55
2021/05/10 21:15:59;;;;;;;10.55;4.75;;;486.70;1587.20;;;;;;4893516;29;20032;-61
2021/05/10 21:18:26;;;;;;;10.13;5.35;;;486.60;1587.20;;;;;;4898852;29;20478;-62
2021/05/10 21:20:55;;;;;;;9.43;4.63;;;486.50;1587.20;;;;;;4900257;29;20029;-61
2021/05/10 21:23:21;;;;;;;12.45;4.63;;;486.50;1612.80;;;;;;4900153;29;20076;-60
2021/05/10 21:25:48;;;;;;;10.35;5.60;;;461.70;1612.80;;;;;;4891234;29;20112;-57
2021/05/10 21:28:14;;;;;;;9.95;4.65;;;486.50;1638.40;;;;;;4900656;29;20499;-61
2021/05/10 21:30:40;;;;;;;10.18;5.00;;;486.40;1638.40;;;;;;4900931;29;20083;-62
2021/05/10 21:33:05;;;;;;;10.25;4.95;;;461.70;1638.40;;;;;;4901183;29;20490;-61
2021/05/10 21:35:31;;;;;;;9.88;4.82;;;461.60;1664.00;;;;;;4900770;29;20029;-56
2021/05/10 21:37:58;;;;;;;11.07;4.85;;;461.60;1664.00;;;;;;4900943;29;20474;-58
2021/05/10 21:40:26;;;;;;;7.47;4.93;;;461.60;1689.60;;;;;;4901242;29;20226;-56
2021/05/10 21:42:51;;;;;;;8.23;4.85;;;461.60;1689.60;;;;;;4901136;29;20379;-60
2021/05/10 21:45:17;;;;;;;10.75;5.32;;;461.60;1689.60;;;;;;4900207;29;20032;-59
2021/05/10 21:47:44;;;;;;;12.80;5.40;;;461.60;1689.60;;;;;;4898669;29;20370;-61
2021/05/10 21:50:14;;;;;;;15.20;6.05;;;461.50;1689.60;;;;;;4900064;29;20044;-59
2021/05/10 21:52:40;;;;;;;13.05;6.95;;;461.40;1689.60;;;;;;4900087;29;20036;-62
2021/05/10 21:55:06;;;;;;;19.33;7.90;;;461.40;1689.60;;;;;;4896929;29;20043;-56
2021/05/10 21:57:33;;;;;;;15.13;7.43;;;461.30;1689.60;;;;;;4899344;29;20119;-56
2021/05/10 21:59:59;;;;;;;19.25;7.72;;;461.20;1689.60;;;;;;4900430;29;20031;-56
2021/05/10 22:02:25;;;;;;;12.88;6.90;;;461.20;1689.60;;;;;;4900030;29;20029;-57
2021/05/10 22:04:50;;;;;;;14.65;7.10;;;461.30;1715.20;;;;;;4898582;29;20501;-55
2021/05/10 22:07:16;;;;;;;15.70;7.63;;;461.20;1715.20;;;;;;4899181;29;20072;-56
2021/05/10 22:09:42;;;;;;;16.13;7.45;;;461.30;1740.80;;;;;;4898834;29;20092;-56
2021/05/10 22:12:08;;;;;;;14.13;6.97;;;461.30;1715.20;;;;;;4898870;29;20378;-57
2021/05/10 22:14:33;;;;;;;17.58;7.22;;;461.20;1715.20;;;;;;4898890;29;20455;-57
2021/05/10 22:16:59;;;;;;;16.05;6.88;;;461.20;1715.20;;;;;;4898895;29;20048;-56
2021/05/10 22:19:25;;;;;;;17.65;6.80;;;461.10;1715.20;;;;;;4898732;29;20039;-56
2021/05/10 22:21:53;;;;;;;15.63;7.07;;;461.10;1715.20;;;;;;4898671;29;20048;-57
2021/05/10 22:24:27;;;;;;;13.05;6.32;;;461.10;1715.20;;;;;;4898863;29;20055;-56
2021/05/10 22:29:18;;;;;;;11.63;5.80;;;461.10;1715.20;;;;;;4900287;29;20446;-56
2021/05/10 22:31:44;;;;;;;12.85;6.25;;;461.10;1715.20;;;;;;4900264;29;20032;-56
2021/05/10 22:34:10;;;;;;;11.65;5.78;;;461.00;1740.80;;;;;;4899785;29;20574;-57
2021/05/10 22:36:46;;;;;;;12.40;6.28;;;461.00;1740.80;;;;;;4899212;29;20116;-54
2021/05/10 22:39:36;;;;;;;13.95;6.60;;;461.00;1740.80;;;;;;4899585;29;20032;-56
2021/05/10 22:42:09;;;;;;;8.43;5.00;;;461.00;1740.80;;;;;;4900066;29;20033;-58
2021/05/10 22:47:28;;;;;;;9.90;4.90;;;460.90;1766.40;;;;;;4900168;29;20542;-57
2021/05/10 23:13:46;;;;;;;7.18;4.40;;;436.00;1766.40;;;;;;4899724;29;20024;-57
2021/05/10 23:16:22;;;;;;;8.02;4.78;;;435.90;1766.40;;;;;;4899408;29;20060;-60
2021/05/10 23:18:48;;;;;;;9.48;4.40;;;435.80;1766.40;;;;;;4898895;29;20538;-55
2021/05/10 23:21:13;;;;;;;7.70;4.80;;;435.80;1766.40;;;;;;4899354;29;20056;-56
2021/05/10 23:23:39;;;;;;;7.82;4.93;;;435.80;1792.00;;;;;;4899172;29;20028;-57
2021/05/10 23:26:07;;;;;;;9.40;4.93;;;435.80;1817.60;;;;;;4899203;29;20438;-56
2021/05/10 23:28:33;;;;;;;6.25;4.63;;;435.80;1792.00;;;;;;4899514;29;20024;-56
2021/05/10 23:30:59;;;;;;;7.03;4.70;;;435.80;1792.00;;;;;;4899072;29;20402;-57
2021/05/10 23:33:24;;;;;;;9.50;4.38;;;435.70;1792.00;;;;;;4898976;29;20554;-58
2021/05/10 23:35:50;;;;;;;7.15;4.45;;;435.70;1792.00;;;;;;4899081;29;20549;-58
2021/05/10 23:38:16;;;;;;;8.98;4.60;;;435.70;1817.60;;;;;;4899139;29;20036;-56
2021/05/10 23:40:42;;;;;;;9.18;4.50;;;435.70;1817.60;;;;;;4898869;29;20489;-57
2021/05/10 23:43:14;;;;;;;8.55;4.60;;;435.70;1817.60;;;;;;4898816;29;20036;-56
2021/05/10 23:45:40;;;;;;;8.30;4.40;;;435.60;1843.20;;;;;;4881719;29;20040;-56
2021/05/10 23:48:06;;;;;;;7.80;4.82;;;435.50;1817.60;;;;;;4898898;29;20045;-57
2021/05/10 23:50:31;;;;;;;7.65;4.40;;;435.50;1843.20;;;;;;4898889;29;20475;-57
2021/05/10 23:52:57;;;;;;;7.20;4.40;;;435.50;1843.20;;;;;;4898964;29;20473;-57
2021/05/10 23:55:23;;;;;;;7.55;4.40;;;435.40;1868.80;;;;;;4898694;29;20431;-57
2021/05/10 23:57:48;;;;;;;7.90;4.97;;;435.40;1843.20;;;;;;4898873;29;20028;-57
